sensor_id;sensor_type;location;lat;lon;timestamp;P1;P2;P0
63707;PMS5003;67643;-34.198;22.084;2023-02-20T00:01:06;5;4;
63707;PMS5003;67643;-34.198;22.084;2023-02-20T00:03:35;4;2;
63707;PMS5003;67643;-34.198;22.084;2023-02-20T00:06:03;5;4;
63707;PMS5003;67643;-34.198;22.084;2023-02-20T00:08:32;2;2;
63707;PMS5003;67643;-34.198;22.084;2023-02-20T00:11:01;5;3;
63707;PMS5003;67643;-34.198;22.084;2023-02-20T00:13:29;6;4;
63707;PMS5003;67643;-34.198;22.084;2023-02-20T00:15:58;2;2;
63707;PMS5003;67643;-34.198;22.084;2023-02-20T00:18:27;2;2;
63707;PMS5003;67643;-34.198;22.084;2023-02-20T00:20:56;2;2;
63707;PMS5003;67643;-34.198;22.084;2023-02-20T00:23:24;3;2;
63707;PMS5003;67643;-34.198;22.084;2023-02-20T00:25:53;5;3;
63707;PMS5003;67643;-34.198;22.084;2023-02-20T00:28:21;2;2;
63707;PMS5003;67643;-34.198;22.084;2023-02-20T00:30:50;3;2;
63707;PMS5003;67643;-34.198;22.084;2023-02-20T00:33:18;3;3;
63707;PMS5003;67643;-34.198;22.084;2023-02-20T00:35:47;2;2;
63707;PMS5003;67643;-34.198;22.084;2023-02-20T00:38:15;2;2;
63707;PMS5003;67643;-34.198;22.084;2023-02-20T00:40:43;3;3;
63707;PMS5003;67643;-34.198;22.084;2023-02-20T00:43:12;1;1;
63707;PMS5003;67643;-34.198;22.084;2023-02-20T00:45:40;4;4;
63707;PMS5003;67643;-34.198;22.084;2023-02-20T00:48:09;4;3;
63707;PMS5003;67643;-34.198;22.084;2023-02-20T00:50:37;3;2;
63707;PMS5003;67643;-34.198;22.084;2023-02-20T00:53:06;2;2;
63707;PMS5003;67643;-34.198;22.084;2023-02-20T00:55:34;3;3;
63707;PMS5003;67643;-34.198;22.084;2023-02-20T00:58:02;6;2;
63707;PMS5003;67643;-34.198;22.084;2023-02-20T01:00:31;4;3;
63707;PMS5003;67643;-34.198;22.084;2023-02-20T01:02:59;2;2;
63707;PMS5003;67643;-34.198;22.084;2023-02-20T01:05:28;2;1;
63707;PMS5003;67643;-34.198;22.084;2023-02-20T01:07:56;2;2;
63707;PMS5003;67643;-34.198;22.084;2023-02-20T01:10:25;3;3;
63707;PMS5003;67643;-34.198;22.084;2023-02-20T01:12:54;2;2;
63707;PMS5003;67643;-34.198;22.084;2023-02-20T01:15:23;4;4;
63707;PMS5003;67643;-34.198;22.084;2023-02-20T01:17:51;5;4;
63707;PMS5003;67643;-34.198;22.084;2023-02-20T01:20:20;3;2;
63707;PMS5003;67643;-34.198;22.084;2023-02-20T01:22:48;4;3;
63707;PMS5003;67643;-34.198;22.084;2023-02-20T01:25:17;2;2;
63707;PMS5003;67643;-34.198;22.084;2023-02-20T01:27:45;3;2;
63707;PMS5003;67643;-34.198;22.084;2023-02-20T01:30:14;3;2;
63707;PMS5003;67643;-34.198;22.084;2023-02-20T01:32:43;3;3;
63707;PMS5003;67643;-34.198;22.084;2023-02-20T01:35:11;3;2;
63707;PMS5003;67643;-34.198;22.084;2023-02-20T01:37:40;4;3;
63707;PMS5003;67643;-34.198;22.084;2023-02-20T01:40:13;5;3;
63707;PMS5003;67643;-34.198;22.084;2023-02-20T01:42:43;2;0;
63707;PMS5003;67643;-34.198;22.084;2023-02-20T01:45:14;2;2;
63707;PMS5003;67643;-34.198;22.084;2023-02-20T01:47:44;3;2;
63707;PMS5003;67643;-34.198;22.084;2023-02-20T01:50:13;4;4;
63707;PMS5003;67643;-34.198;22.084;2023-02-20T01:52:45;2;2;
63707;PMS5003;67643;-34.198;22.084;2023-02-20T01:55:19;1;1;
63707;PMS5003;67643;-34.198;22.084;2023-02-20T01:57:52;4;2;
63707;PMS5003;67643;-34.198;22.084;2023-02-20T02:02:22;2;2;
63707;PMS5003;67643;-34.198;22.084;2023-02-20T02:04:54;3;3;
63707;PMS5003;67643;-34.198;22.084;2023-02-20T02:07:22;2;1;
63707;PMS5003;67643;-34.198;22.084;2023-02-20T02:09:52;1;1;
63707;PMS5003;67643;-34.198;22.084;2023-02-20T02:12:24;2;2;
63707;PMS5003;67643;-34.198;22.084;2023-02-20T02:14:54;3;3;
63707;PMS5003;67643;-34.198;22.084;2023-02-20T02:17:27;4;2;
63707;PMS5003;67643;-34.198;22.084;2023-02-20T02:20:15;4;4;
63707;PMS5003;67643;-34.198;22.084;2023-02-20T02:22:36;3;3;
63707;PMS5003;67643;-34.198;22.084;2023-02-20T02:25:29;2;2;
63707;PMS5003;67643;-34.198;22.084;2023-02-20T02:28:16;4;4;
63707;PMS5003;67643;-34.198;22.084;2023-02-20T02:30:36;4;4;
63707;PMS5003;67643;-34.198;22.084;2023-02-20T04:10:14;5;3;
63707;PMS5003;67643;-34.198;22.084;2023-02-20T04:12:48;2;2;
63707;PMS5003;67643;-34.198;22.084;2023-02-20T04:15:19;5;3;
63707;PMS5003;67643;-34.198;22.084;2023-02-20T04:17:50;4;2;
63707;PMS5003;67643;-34.198;22.084;2023-02-20T04:20:23;3;3;
63707;PMS5003;67643;-34.198;22.084;2023-02-20T04:22:53;2;2;
63707;PMS5003;67643;-34.198;22.084;2023-02-20T04:25:29;2;2;
63707;PMS5003;67643;-34.198;22.084;2023-02-20T04:28:03;3;3;
63707;PMS5003;67643;-34.198;22.084;2023-02-20T04:30:32;3;3;
63707;PMS5003;67643;-34.198;22.084;2023-02-20T04:33:01;2;2;
63707;PMS5003;67643;-34.198;22.084;2023-02-20T04:35:29;3;3;
63707;PMS5003;67643;-34.198;22.084;2023-02-20T04:37:58;3;3;
63707;PMS5003;67643;-34.198;22.084;2023-02-20T04:40:26;3;2;
63707;PMS5003;67643;-34.198;22.084;2023-02-20T04:42:55;2;1;
63707;PMS5003;67643;-34.198;22.084;2023-02-20T04:45:23;3;3;
63707;PMS5003;67643;-34.198;22.084;2023-02-20T04:47:52;3;3;
63707;PMS5003;67643;-34.198;22.084;2023-02-20T04:50:21;2;1;
63707;PMS5003;67643;-34.198;22.084;2023-02-20T04:52:52;5;4;
63707;PMS5003;67643;-34.198;22.084;2023-02-20T04:55:22;2;2;
63707;PMS5003;67643;-34.198;22.084;2023-02-20T04:57:51;3;2;
63707;PMS5003;67643;-34.198;22.084;2023-02-20T05:00:21;4;4;
63707;PMS5003;67643;-34.198;22.084;2023-02-20T05:02:50;1;1;
63707;PMS5003;67643;-34.198;22.084;2023-02-20T05:05:20;4;4;
63707;PMS5003;67643;-34.198;22.084;2023-02-20T05:07:53;2;1;
63707;PMS5003;67643;-34.198;22.084;2023-02-20T05:10:24;3;3;
63707;PMS5003;67643;-34.198;22.084;2023-02-20T05:12:54;4;2;
63707;PMS5003;67643;-34.198;22.084;2023-02-20T05:15:22;4;3;
63707;PMS5003;67643;-34.198;22.084;2023-02-20T05:17:51;0;0;
63707;PMS5003;67643;-34.198;22.084;2023-02-20T05:20:20;3;2;
63707;PMS5003;67643;-34.198;22.084;2023-02-20T05:22:48;3;3;
63707;PMS5003;67643;-34.198;22.084;2023-02-20T05:25:17;4;2;
63707;PMS5003;67643;-34.198;22.084;2023-02-20T05:27:45;1;1;
63707;PMS5003;67643;-34.198;22.084;2023-02-20T05:30:14;5;3;
63707;PMS5003;67643;-34.198;22.084;2023-02-20T05:32:42;1;1;
63707;PMS5003;67643;-34.198;22.084;2023-02-20T05:35:11;3;2;
63707;PMS5003;67643;-34.198;22.084;2023-02-20T05:37:39;1;1;
63707;PMS5003;67643;-34.198;22.084;2023-02-20T05:40:08;1;1;
63707;PMS5003;67643;-34.198;22.084;2023-02-20T05:42:37;1;1;
63707;PMS5003;67643;-34.198;22.084;2023-02-20T05:45:07;2;2;
63707;PMS5003;67643;-34.198;22.084;2023-02-20T05:47:36;58;44;
63707;PMS5003;67643;-34.198;22.084;2023-02-20T05:50:04;40;33;
63707;PMS5003;67643;-34.198;22.084;2023-02-20T05:52:33;45;34;
63707;PMS5003;67643;-34.198;22.084;2023-02-20T05:55:02;31;23;
63707;PMS5003;67643;-34.198;22.084;2023-02-20T05:57:30;23;20;
63707;PMS5003;67643;-34.198;22.084;2023-02-20T05:59:59;35;24;
63707;PMS5003;67643;-34.198;22.084;2023-02-20T06:02:30;18;16;
63707;PMS5003;67643;-34.198;22.084;2023-02-20T06:04:58;16;15;
63707;PMS5003;67643;-34.198;22.084;2023-02-20T06:07:27;33;27;
63707;PMS5003;67643;-34.198;22.084;2023-02-20T06:09:56;29;25;
63707;PMS5003;67643;-34.198;22.084;2023-02-20T06:12:26;22;18;
63707;PMS5003;67643;-34.198;22.084;2023-02-20T06:14:54;31;20;
63707;PMS5003;67643;-34.198;22.084;2023-02-20T06:17:23;15;11;
63707;PMS5003;67643;-34.198;22.084;2023-02-20T06:19:51;15;13;
63707;PMS5003;67643;-34.198;22.084;2023-02-20T06:22:20;15;13;
63707;PMS5003;67643;-34.198;22.084;2023-02-20T06:24:49;18;15;
63707;PMS5003;67643;-34.198;22.084;2023-02-20T06:27:18;19;14;
63707;PMS5003;67643;-34.198;22.084;2023-02-20T06:29:47;15;11;
63707;PMS5003;67643;-34.198;22.084;2023-02-20T06:32:16;25;19;
63707;PMS5003;67643;-34.198;22.084;2023-02-20T06:34:45;15;13;
63707;PMS5003;67643;-34.198;22.084;2023-02-20T06:37:16;12;12;
63707;PMS5003;67643;-34.198;22.084;2023-02-20T06:39:45;17;13;
63707;PMS5003;67643;-34.198;22.084;2023-02-20T06:42:13;9;8;
63707;PMS5003;67643;-34.198;22.084;2023-02-20T06:44:42;11;8;
63707;PMS5003;67643;-34.198;22.084;2023-02-20T06:47:10;9;8;
63707;PMS5003;67643;-34.198;22.084;2023-02-20T06:49:38;10;8;
63707;PMS5003;67643;-34.198;22.084;2023-02-20T06:52:07;9;5;
63707;PMS5003;67643;-34.198;22.084;2023-02-20T06:54:35;10;8;
63707;PMS5003;67643;-34.198;22.084;2023-02-20T06:57:04;9;6;
63707;PMS5003;67643;-34.198;22.084;2023-02-20T06:59:33;5;5;
63707;PMS5003;67643;-34.198;22.084;2023-02-20T07:02:01;3;3;
63707;PMS5003;67643;-34.198;22.084;2023-02-20T07:04:30;5;3;
63707;PMS5003;67643;-34.198;22.084;2023-02-20T07:06:58;3;3;
63707;PMS5003;67643;-34.198;22.084;2023-02-20T07:09:27;5;4;
63707;PMS5003;67643;-34.198;22.084;2023-02-20T07:11:55;3;3;
63707;PMS5003;67643;-34.198;22.084;2023-02-20T07:14:25;1;1;
63707;PMS5003;67643;-34.198;22.084;2023-02-20T07:16:53;2;2;
63707;PMS5003;67643;-34.198;22.084;2023-02-20T07:19:22;2;2;
63707;PMS5003;67643;-34.198;22.084;2023-02-20T07:21:50;3;3;
63707;PMS5003;67643;-34.198;22.084;2023-02-20T07:24:18;2;2;
63707;PMS5003;67643;-34.198;22.084;2023-02-20T07:26:47;2;1;
63707;PMS5003;67643;-34.198;22.084;2023-02-20T07:29:15;1;1;
63707;PMS5003;67643;-34.198;22.084;2023-02-20T07:31:44;0;0;
63707;PMS5003;67643;-34.198;22.084;2023-02-20T07:34:12;0;0;
63707;PMS5003;67643;-34.198;22.084;2023-02-20T07:36:41;1;1;
63707;PMS5003;67643;-34.198;22.084;2023-02-20T07:39:11;4;1;
63707;PMS5003;67643;-34.198;22.084;2023-02-20T07:41:40;2;1;
63707;PMS5003;67643;-34.198;22.084;2023-02-20T07:44:09;3;1;
63707;PMS5003;67643;-34.198;22.084;2023-02-20T07:46:38;1;1;
63707;PMS5003;67643;-34.198;22.084;2023-02-20T07:49:07;3;2;
63707;PMS5003;67643;-34.198;22.084;2023-02-20T07:51:36;1;0;
63707;PMS5003;67643;-34.198;22.084;2023-02-20T07:54:04;0;0;
63707;PMS5003;67643;-34.198;22.084;2023-02-20T07:56:33;2;1;
63707;PMS5003;67643;-34.198;22.084;2023-02-20T07:59:01;3;2;
63707;PMS5003;67643;-34.198;22.084;2023-02-20T08:01:30;0;0;
63707;PMS5003;67643;-34.198;22.084;2023-02-20T08:03:58;1;1;
63707;PMS5003;67643;-34.198;22.084;2023-02-20T08:06:27;0;0;
63707;PMS5003;67643;-34.198;22.084;2023-02-20T08:08:55;0;0;
63707;PMS5003;67643;-34.198;22.084;2023-02-20T08:11:25;1;1;
63707;PMS5003;67643;-34.198;22.084;2023-02-20T08:13:53;0;0;
63707;PMS5003;67643;-34.198;22.084;2023-02-20T08:16:22;2;0;
63707;PMS5003;67643;-34.198;22.084;2023-02-20T08:18:50;0;0;
63707;PMS5003;67643;-34.198;22.084;2023-02-20T08:21:19;0;0;
63707;PMS5003;67643;-34.198;22.084;2023-02-20T08:23:48;0;0;
63707;PMS5003;67643;-34.198;22.084;2023-02-20T08:26:17;3;1;
63707;PMS5003;67643;-34.198;22.084;2023-02-20T08:28:46;0;0;
63707;PMS5003;67643;-34.198;22.084;2023-02-20T08:31:14;0;0;
63707;PMS5003;67643;-34.198;22.084;2023-02-20T08:33:43;0;0;
63707;PMS5003;67643;-34.198;22.084;2023-02-20T08:36:11;0;0;
63707;PMS5003;67643;-34.198;22.084;2023-02-20T08:38:39;0;0;
63707;PMS5003;67643;-34.198;22.084;2023-02-20T08:41:09;0;0;
63707;PMS5003;67643;-34.198;22.084;2023-02-20T08:43:39;2;2;
63707;PMS5003;67643;-34.198;22.084;2023-02-20T08:46:09;1;0;
63707;PMS5003;67643;-34.198;22.084;2023-02-20T08:48:38;2;1;
63707;PMS5003;67643;-34.198;22.084;2023-02-20T08:51:06;3;0;
63707;PMS5003;67643;-34.198;22.084;2023-02-20T08:53:36;0;0;
63707;PMS5003;67643;-34.198;22.084;2023-02-20T08:56:06;2;2;
63707;PMS5003;67643;-34.198;22.084;2023-02-20T08:58:34;19;14;
63707;PMS5003;67643;-34.198;22.084;2023-02-20T09:01:03;36;32;
63707;PMS5003;67643;-34.198;22.084;2023-02-20T09:03:31;25;19;
63707;PMS5003;67643;-34.198;22.084;2023-02-20T09:06:00;26;23;
63707;PMS5003;67643;-34.198;22.084;2023-02-20T09:08:28;32;21;
63707;PMS5003;67643;-34.198;22.084;2023-02-20T09:10:58;20;16;
63707;PMS5003;67643;-34.198;22.084;2023-02-20T09:13:27;29;24;
63707;PMS5003;67643;-34.198;22.084;2023-02-20T09:15:56;38;27;
63707;PMS5003;67643;-34.198;22.084;2023-02-20T09:18:25;30;23;
63707;PMS5003;67643;-34.198;22.084;2023-02-20T09:20:53;24;17;
63707;PMS5003;67643;-34.198;22.084;2023-02-20T09:23:21;16;12;
63707;PMS5003;67643;-34.198;22.084;2023-02-20T09:25:50;11;8;
63707;PMS5003;67643;-34.198;22.084;2023-02-20T09:28:19;15;12;
63707;PMS5003;67643;-34.198;22.084;2023-02-20T09:30:48;6;6;
63707;PMS5003;67643;-34.198;22.084;2023-02-20T09:33:16;9;6;
63707;PMS5003;67643;-34.198;22.084;2023-02-20T09:35:45;17;9;
63707;PMS5003;67643;-34.198;22.084;2023-02-20T09:38:13;16;10;
63707;PMS5003;67643;-34.198;22.084;2023-02-20T09:40:42;5;3;
63707;PMS5003;67643;-34.198;22.084;2023-02-20T09:43:15;3;2;
63707;PMS5003;67643;-34.198;22.084;2023-02-20T09:45:51;2;2;
63707;PMS5003;67643;-34.198;22.084;2023-02-20T09:48:30;10;5;
63707;PMS5003;67643;-34.198;22.084;2023-02-20T09:51:06;12;5;
63707;PMS5003;67643;-34.198;22.084;2023-02-20T09:53:43;7;3;
63707;PMS5003;67643;-34.198;22.084;2023-02-20T09:56:18;4;1;
63707;PMS5003;67643;-34.198;22.084;2023-02-20T09:58:52;9;3;
63707;PMS5003;67643;-34.198;22.084;2023-02-20T12:07:33;13;8;
63707;PMS5003;67643;-34.198;22.084;2023-02-20T12:10:09;11;7;
63707;PMS5003;67643;-34.198;22.084;2023-02-20T12:12:49;15;8;
63707;PMS5003;67643;-34.198;22.084;2023-02-20T12:15:21;7;7;
63707;PMS5003;67643;-34.198;22.084;2023-02-20T12:17:57;11;5;
63707;PMS5003;67643;-34.198;22.084;2023-02-20T12:20:41;10;7;
63707;PMS5003;67643;-34.198;22.084;2023-02-20T12:23:19;9;6;
63707;PMS5003;67643;-34.198;22.084;2023-02-20T12:25:56;2;2;
63707;PMS5003;67643;-34.198;22.084;2023-02-20T12:28:37;9;4;
63707;PMS5003;67643;-34.198;22.084;2023-02-20T12:31:19;10;7;
63707;PMS5003;67643;-34.198;22.084;2023-02-20T12:34:03;9;6;
63707;PMS5003;67643;-34.198;22.084;2023-02-20T12:36:45;12;6;
63707;PMS5003;67643;-34.198;22.084;2023-02-20T12:39:21;8;5;
63707;PMS5003;67643;-34.198;22.084;2023-02-20T15:23:44;10;4;
63707;PMS5003;67643;-34.198;22.084;2023-02-20T15:26:34;7;3;
63707;PMS5003;67643;-34.198;22.084;2023-02-20T15:29:12;7;3;
63707;PMS5003;67643;-34.198;22.084;2023-02-20T15:31:52;8;2;
63707;PMS5003;67643;-34.198;22.084;2023-02-20T15:34:24;2;2;
63707;PMS5003;67643;-34.198;22.084;2023-02-20T15:36:54;3;3;
63707;PMS5003;67643;-34.198;22.084;2023-02-20T15:39:23;9;7;
63707;PMS5003;67643;-34.198;22.084;2023-02-20T15:41:52;3;3;
63707;PMS5003;67643;-34.198;22.084;2023-02-20T15:44:21;7;2;
63707;PMS5003;67643;-34.198;22.084;2023-02-20T15:46:49;4;4;
63707;PMS5003;67643;-34.198;22.084;2023-02-20T15:49:18;4;2;
63707;PMS5003;67643;-34.198;22.084;2023-02-20T15:51:46;5;5;
63707;PMS5003;67643;-34.198;22.084;2023-02-20T15:54:15;3;2;
63707;PMS5003;67643;-34.198;22.084;2023-02-20T15:56:45;1;1;
63707;PMS5003;67643;-34.198;22.084;2023-02-20T15:59:13;2;0;
63707;PMS5003;67643;-34.198;22.084;2023-02-20T16:01:42;4;4;
63707;PMS5003;67643;-34.198;22.084;2023-02-20T16:04:13;1;1;
63707;PMS5003;67643;-34.198;22.084;2023-02-20T16:06:42;3;3;
63707;PMS5003;67643;-34.198;22.084;2023-02-20T16:09:10;4;2;
63707;PMS5003;67643;-34.198;22.084;2023-02-20T16:11:39;3;1;
63707;PMS5003;67643;-34.198;22.084;2023-02-20T16:14:11;3;0;
63707;PMS5003;67643;-34.198;22.084;2023-02-20T16:16:42;5;3;
63707;PMS5003;67643;-34.198;22.084;2023-02-20T16:19:12;5;3;
63707;PMS5003;67643;-34.198;22.084;2023-02-20T16:21:42;4;3;
63707;PMS5003;67643;-34.198;22.084;2023-02-20T16:24:12;5;2;
63707;PMS5003;67643;-34.198;22.084;2023-02-20T16:26:42;6;1;
63707;PMS5003;67643;-34.198;22.084;2023-02-20T16:29:14;8;3;
63707;PMS5003;67643;-34.198;22.084;2023-02-20T16:32:19;1;1;
63707;PMS5003;67643;-34.198;22.084;2023-02-20T16:34:50;3;0;
63707;PMS5003;67643;-34.198;22.084;2023-02-20T16:37:20;3;1;
63707;PMS5003;67643;-34.198;22.084;2023-02-20T16:39:49;5;3;
63707;PMS5003;67643;-34.198;22.084;2023-02-20T16:42:21;1;1;
63707;PMS5003;67643;-34.198;22.084;2023-02-20T16:44:52;1;1;
63707;PMS5003;67643;-34.198;22.084;2023-02-20T16:47:22;0;0;
63707;PMS5003;67643;-34.198;22.084;2023-02-20T16:49:52;2;2;
63707;PMS5003;67643;-34.198;22.084;2023-02-20T16:52:23;27;21;
63707;PMS5003;67643;-34.198;22.084;2023-02-20T16:54:52;21;20;
63707;PMS5003;67643;-34.198;22.084;2023-02-20T16:57:22;25;21;
63707;PMS5003;67643;-34.198;22.084;2023-02-20T16:59:53;20;19;
63707;PMS5003;67643;-34.198;22.084;2023-02-20T17:02:24;33;28;
63707;PMS5003;67643;-34.198;22.084;2023-02-20T17:04:55;27;24;
63707;PMS5003;67643;-34.198;22.084;2023-02-20T17:07:24;20;17;
63707;PMS5003;67643;-34.198;22.084;2023-02-20T17:09:53;20;19;
63707;PMS5003;67643;-34.198;22.084;2023-02-20T17:12:22;16;13;
63707;PMS5003;67643;-34.198;22.084;2023-02-20T17:14:52;16;14;
63707;PMS5003;67643;-34.198;22.084;2023-02-20T17:17:21;19;16;
63707;PMS5003;67643;-34.198;22.084;2023-02-20T17:19:49;11;10;
63707;PMS5003;67643;-34.198;22.084;2023-02-20T17:22:18;16;12;
63707;PMS5003;67643;-34.198;22.084;2023-02-20T17:24:49;12;10;
63707;PMS5003;67643;-34.198;22.084;2023-02-20T17:27:17;10;10;
63707;PMS5003;67643;-34.198;22.084;2023-02-20T17:29:46;12;10;
63707;PMS5003;67643;-34.198;22.084;2023-02-20T17:32:15;7;7;
63707;PMS5003;67643;-34.198;22.084;2023-02-20T17:34:44;8;7;
63707;PMS5003;67643;-34.198;22.084;2023-02-20T17:37:12;10;7;
63707;PMS5003;67643;-34.198;22.084;2023-02-20T17:39:41;6;4;
63707;PMS5003;67643;-34.198;22.084;2023-02-20T17:42:09;6;3;
63707;PMS5003;67643;-34.198;22.084;2023-02-20T17:44:38;7;3;
63707;PMS5003;67643;-34.198;22.084;2023-02-20T17:47:06;10;5;
63707;PMS5003;67643;-34.198;22.084;2023-02-20T17:49:36;6;4;
63707;PMS5003;67643;-34.198;22.084;2023-02-20T17:52:04;5;4;
63707;PMS5003;67643;-34.198;22.084;2023-02-20T17:54:32;1;1;
63707;PMS5003;67643;-34.198;22.084;2023-02-20T17:57:01;2;2;
63707;PMS5003;67643;-34.198;22.084;2023-02-20T17:59:30;3;3;
63707;PMS5003;67643;-34.198;22.084;2023-02-20T18:02:03;5;2;
63707;PMS5003;67643;-34.198;22.084;2023-02-20T18:04:31;1;0;
63707;PMS5003;67643;-34.198;22.084;2023-02-20T18:07:01;5;2;
